sensor_id;sensor_type;location;lat;lon;timestamp;temperature;humidity
60909;DHT22;46780;48.128;-1.704;2023-02-18T00:01:58;13.20;97.90
60909;DHT22;46780;48.128;-1.704;2023-02-18T00:04:25;13.30;97.80
60909;DHT22;46780;48.128;-1.704;2023-02-18T00:06:52;13.30;97.40
60909;DHT22;46780;48.128;-1.704;2023-02-18T00:09:18;13.30;97.10
60909;DHT22;46780;48.128;-1.704;2023-02-18T00:11:44;13.30;96.70
60909;DHT22;46780;48.128;-1.704;2023-02-18T00:14:11;13.30;96.70
60909;DHT22;46780;48.128;-1.704;2023-02-18T00:16:37;13.30;96.70
60909;DHT22;46780;48.128;-1.704;2023-02-18T00:19:04;13.30;96.70
60909;DHT22;46780;48.128;-1.704;2023-02-18T00:21:33;13.40;96.40
60909;DHT22;46780;48.128;-1.704;2023-02-18T00:24:00;13.40;96.20
60909;DHT22;46780;48.128;-1.704;2023-02-18T00:26:26;13.40;95.90
60909;DHT22;46780;48.128;-1.704;2023-02-18T00:28:52;13.40;95.60
60909;DHT22;46780;48.128;-1.704;2023-02-18T00:31:19;13.40;95.40
60909;DHT22;46780;48.128;-1.704;2023-02-18T00:33:46;13.40;95.30
60909;DHT22;46780;48.128;-1.704;2023-02-18T00:36:13;13.40;95.30
60909;DHT22;46780;48.128;-1.704;2023-02-18T00:38:44;13.40;95.20
60909;DHT22;46780;48.128;-1.704;2023-02-18T00:41:10;13.40;95.10
60909;DHT22;46780;48.128;-1.704;2023-02-18T00:43:36;13.40;94.80
60909;DHT22;46780;48.128;-1.704;2023-02-18T00:46:02;13.40;94.70
60909;DHT22;46780;48.128;-1.704;2023-02-18T00:48:29;13.40;94.50
60909;DHT22;46780;48.128;-1.704;2023-02-18T00:50:55;13.40;94.40
60909;DHT22;46780;48.128;-1.704;2023-02-18T00:53:21;13.40;94.20
60909;DHT22;46780;48.128;-1.704;2023-02-18T00:55:49;13.40;94.20
60909;DHT22;46780;48.128;-1.704;2023-02-18T00:58:15;13.40;94.10
60909;DHT22;46780;48.128;-1.704;2023-02-18T01:00:41;13.40;94.00
60909;DHT22;46780;48.128;-1.704;2023-02-18T01:03:07;13.40;94.00
60909;DHT22;46780;48.128;-1.704;2023-02-18T01:05:34;13.40;93.90
60909;DHT22;46780;48.128;-1.704;2023-02-18T01:08:00;13.40;93.80
60909;DHT22;46780;48.128;-1.704;2023-02-18T01:10:26;13.40;93.80
60909;DHT22;46780;48.128;-1.704;2023-02-18T01:12:54;13.40;93.70
60909;DHT22;46780;48.128;-1.704;2023-02-18T01:15:21;13.40;93.60
60909;DHT22;46780;48.128;-1.704;2023-02-18T01:17:47;13.40;93.40
60909;DHT22;46780;48.128;-1.704;2023-02-18T01:20:15;13.40;93.50
60909;DHT22;46780;48.128;-1.704;2023-02-18T01:22:42;13.40;93.50
60909;DHT22;46780;48.128;-1.704;2023-02-18T01:25:08;13.40;93.10
60909;DHT22;46780;48.128;-1.704;2023-02-18T01:27:35;13.30;92.80
60909;DHT22;46780;48.128;-1.704;2023-02-18T01:30:03;13.30;92.70
60909;DHT22;46780;48.128;-1.704;2023-02-18T01:32:29;13.10;92.70
60909;DHT22;46780;48.128;-1.704;2023-02-18T01:34:55;13.00;92.80
60909;DHT22;46780;48.128;-1.704;2023-02-18T01:37:22;13.00;93.00
60909;DHT22;46780;48.128;-1.704;2023-02-18T01:39:48;13.00;93.10
60909;DHT22;46780;48.128;-1.704;2023-02-18T01:42:18;12.90;93.20
60909;DHT22;46780;48.128;-1.704;2023-02-18T01:44:45;12.80;93.50
60909;DHT22;46780;48.128;-1.704;2023-02-18T01:47:13;12.80;93.70
60909;DHT22;46780;48.128;-1.704;2023-02-18T01:49:39;12.80;93.80
60909;DHT22;46780;48.128;-1.704;2023-02-18T01:52:07;12.70;94.00
60909;DHT22;46780;48.128;-1.704;2023-02-18T01:54:34;12.70;93.90
60909;DHT22;46780;48.128;-1.704;2023-02-18T01:57:02;12.70;94.00
60909;DHT22;46780;48.128;-1.704;2023-02-18T01:59:30;12.60;94.00
60909;DHT22;46780;48.128;-1.704;2023-02-18T02:01:58;12.60;93.50
60909;DHT22;46780;48.128;-1.704;2023-02-18T02:04:25;12.50;92.70
60909;DHT22;46780;48.128;-1.704;2023-02-18T02:06:52;12.50;92.50
60909;DHT22;46780;48.128;-1.704;2023-02-18T02:09:18;12.40;92.30
60909;DHT22;46780;48.128;-1.704;2023-02-18T02:14:43;12.40;92.40
60909;DHT22;46780;48.128;-1.704;2023-02-18T02:17:15;12.30;92.50
60909;DHT22;46780;48.128;-1.704;2023-02-18T02:19:57;12.30;92.40
60909;DHT22;46780;48.128;-1.704;2023-02-18T02:22:34;12.30;92.50
60909;DHT22;46780;48.128;-1.704;2023-02-18T02:25:07;12.30;92.70
60909;DHT22;46780;48.128;-1.704;2023-02-18T02:27:52;12.30;92.60
60909;DHT22;46780;48.128;-1.704;2023-02-18T02:35:55;12.30;93.00
60909;DHT22;46780;48.128;-1.704;2023-02-18T02:38:22;12.30;93.10
60909;DHT22;46780;48.128;-1.704;2023-02-18T02:40:51;12.30;93.10
60909;DHT22;46780;48.128;-1.704;2023-02-18T02:43:20;12.20;93.30
60909;DHT22;46780;48.128;-1.704;2023-02-18T02:45:53;12.20;93.40
60909;DHT22;46780;48.128;-1.704;2023-02-18T02:48:22;12.20;93.50
60909;DHT22;46780;48.128;-1.704;2023-02-18T02:50:51;12.20;93.70
60909;DHT22;46780;48.128;-1.704;2023-02-18T02:53:20;12.20;93.60
60909;DHT22;46780;48.128;-1.704;2023-02-18T02:55:48;12.20;93.80
60909;DHT22;46780;48.128;-1.704;2023-02-18T02:58:14;12.10;93.90
60909;DHT22;46780;48.128;-1.704;2023-02-18T03:00:42;12.10;94.00
60909;DHT22;46780;48.128;-1.704;2023-02-18T03:03:14;12.10;94.10
60909;DHT22;46780;48.128;-1.704;2023-02-18T03:05:46;12.10;94.10
60909;DHT22;46780;48.128;-1.704;2023-02-18T03:08:20;12.10;94.20
60909;DHT22;46780;48.128;-1.704;2023-02-18T03:10:51;12.10;94.30
60909;DHT22;46780;48.128;-1.704;2023-02-18T03:13:23;12.10;94.20
60909;DHT22;46780;48.128;-1.704;2023-02-18T03:15:53;12.10;94.00
60909;DHT22;46780;48.128;-1.704;2023-02-18T03:18:22;12.10;94.10
60909;DHT22;46780;48.128;-1.704;2023-02-18T03:20:50;12.00;94.20
60909;DHT22;46780;48.128;-1.704;2023-02-18T03:23:21;12.00;94.10
60909;DHT22;46780;48.128;-1.704;2023-02-18T03:25:49;12.00;94.10
60909;DHT22;46780;48.128;-1.704;2023-02-18T03:28:16;12.00;94.30
60909;DHT22;46780;48.128;-1.704;2023-02-18T03:30:43;12.00;94.50
60909;DHT22;46780;48.128;-1.704;2023-02-18T03:33:12;12.00;94.60
60909;DHT22;46780;48.128;-1.704;2023-02-18T03:35:39;12.00;94.60
60909;DHT22;46780;48.128;-1.704;2023-02-18T03:38:08;12.00;94.60
60909;DHT22;46780;48.128;-1.704;2023-02-18T03:40:38;12.00;94.40
60909;DHT22;46780;48.128;-1.704;2023-02-18T03:43:04;12.00;94.60
60909;DHT22;46780;48.128;-1.704;2023-02-18T03:45:31;12.10;94.70
60909;DHT22;46780;48.128;-1.704;2023-02-18T03:47:57;12.00;94.70
60909;DHT22;46780;48.128;-1.704;2023-02-18T03:50:23;12.00;94.70
60909;DHT22;46780;48.128;-1.704;2023-02-18T03:52:49;12.10;94.70
60909;DHT22;46780;48.128;-1.704;2023-02-18T03:55:15;12.10;94.80
60909;DHT22;46780;48.128;-1.704;2023-02-18T03:57:43;12.10;94.80
60909;DHT22;46780;48.128;-1.704;2023-02-18T04:00:09;12.20;94.80
60909;DHT22;46780;48.128;-1.704;2023-02-18T04:02:36;12.20;94.70
60909;DHT22;46780;48.128;-1.704;2023-02-18T04:05:02;12.20;94.60
60909;DHT22;46780;48.128;-1.704;2023-02-18T04:07:29;12.20;94.60
60909;DHT22;46780;48.128;-1.704;2023-02-18T04:09:55;12.20;94.50
60909;DHT22;46780;48.128;-1.704;2023-02-18T04:12:21;12.20;94.60
60909;DHT22;46780;48.128;-1.704;2023-02-18T04:14:48;12.20;94.60
60909;DHT22;46780;48.128;-1.704;2023-02-18T04:17:15;12.20;94.70
60909;DHT22;46780;48.128;-1.704;2023-02-18T04:19:41;12.10;94.80
60909;DHT22;46780;48.128;-1.704;2023-02-18T04:22:07;12.10;94.90
60909;DHT22;46780;48.128;-1.704;2023-02-18T04:24:33;12.10;95.00
60909;DHT22;46780;48.128;-1.704;2023-02-18T04:26:59;12.10;95.00
60909;DHT22;46780;48.128;-1.704;2023-02-18T04:29:26;12.20;95.10
60909;DHT22;46780;48.128;-1.704;2023-02-18T04:31:53;12.20;95.10
60909;DHT22;46780;48.128;-1.704;2023-02-18T04:34:19;12.10;95.10
60909;DHT22;46780;48.128;-1.704;2023-02-18T04:36:45;12.10;95.20
60909;DHT22;46780;48.128;-1.704;2023-02-18T04:39:12;12.10;95.30
60909;DHT22;46780;48.128;-1.704;2023-02-18T04:41:38;12.10;95.50
60909;DHT22;46780;48.128;-1.704;2023-02-18T04:44:04;12.00;95.80
60909;DHT22;46780;48.128;-1.704;2023-02-18T04:46:31;12.00;96.00
60909;DHT22;46780;48.128;-1.704;2023-02-18T04:48:58;12.00;96.10
60909;DHT22;46780;48.128;-1.704;2023-02-18T04:51:24;12.00;96.20
60909;DHT22;46780;48.128;-1.704;2023-02-18T04:53:51;12.00;95.90
60909;DHT22;46780;48.128;-1.704;2023-02-18T04:56:17;12.00;95.50
60909;DHT22;46780;48.128;-1.704;2023-02-18T04:58:43;12.00;95.50
60909;DHT22;46780;48.128;-1.704;2023-02-18T05:01:09;12.00;95.70
60909;DHT22;46780;48.128;-1.704;2023-02-18T05:03:35;11.90;95.80
60909;DHT22;46780;48.128;-1.704;2023-02-18T05:06:03;11.90;95.90
60909;DHT22;46780;48.128;-1.704;2023-02-18T05:08:29;11.90;96.10
60909;DHT22;46780;48.128;-1.704;2023-02-18T05:10:56;11.90;96.30
60909;DHT22;46780;48.128;-1.704;2023-02-18T05:13:22;12.00;96.50
60909;DHT22;46780;48.128;-1.704;2023-02-18T05:15:48;12.00;96.70
60909;DHT22;46780;48.128;-1.704;2023-02-18T05:18:14;12.00;96.80
60909;DHT22;46780;48.128;-1.704;2023-02-18T05:20:41;12.00;97.00
60909;DHT22;46780;48.128;-1.704;2023-02-18T05:23:09;11.90;97.10
60909;DHT22;46780;48.128;-1.704;2023-02-18T05:25:36;12.00;97.30
60909;DHT22;46780;48.128;-1.704;2023-02-18T05:28:02;12.00;97.40
60909;DHT22;46780;48.128;-1.704;2023-02-18T05:30:28;11.90;97.50
60909;DHT22;46780;48.128;-1.704;2023-02-18T05:32:54;11.90;97.60
60909;DHT22;46780;48.128;-1.704;2023-02-18T05:35:20;12.00;97.70
60909;DHT22;46780;48.128;-1.704;2023-02-18T05:37:46;11.90;97.80
60909;DHT22;46780;48.128;-1.704;2023-02-18T05:40:14;11.90;97.90
60909;DHT22;46780;48.128;-1.704;2023-02-18T05:42:40;11.90;98.50
60909;DHT22;46780;48.128;-1.704;2023-02-18T05:45:07;11.90;98.30
60909;DHT22;46780;48.128;-1.704;2023-02-18T05:47:33;11.90;98.50
60909;DHT22;46780;48.128;-1.704;2023-02-18T05:49:59;11.90;98.70
60909;DHT22;46780;48.128;-1.704;2023-02-18T05:52:25;11.80;98.90
60909;DHT22;46780;48.128;-1.704;2023-02-18T05:54:52;11.90;99.20
60909;DHT22;46780;48.128;-1.704;2023-02-18T05:57:19;11.90;99.30
60909;DHT22;46780;48.128;-1.704;2023-02-18T05:59:45;11.80;99.60
60909;DHT22;46780;48.128;-1.704;2023-02-18T06:02:12;11.80;99.90
60909;DHT22;46780;48.128;-1.704;2023-02-18T06:04:38;11.80;99.90
60909;DHT22;46780;48.128;-1.704;2023-02-18T06:07:04;11.80;99.90
60909;DHT22;46780;48.128;-1.704;2023-02-18T06:09:30;11.70;99.90
60909;DHT22;46780;48.128;-1.704;2023-02-18T06:11:56;11.70;99.90
60909;DHT22;46780;48.128;-1.704;2023-02-18T06:14:24;11.60;99.90
60909;DHT22;46780;48.128;-1.704;2023-02-18T06:16:50;11.60;99.90
60909;DHT22;46780;48.128;-1.704;2023-02-18T06:19:17;11.60;99.90
60909;DHT22;46780;48.128;-1.704;2023-02-18T06:21:43;11.60;99.90
60909;DHT22;46780;48.128;-1.704;2023-02-18T06:24:09;11.60;99.90
60909;DHT22;46780;48.128;-1.704;2023-02-18T06:26:35;11.60;99.90
60909;DHT22;46780;48.128;-1.704;2023-02-18T06:29:02;11.60;99.90
60909;DHT22;46780;48.128;-1.704;2023-02-18T06:31:29;11.60;99.90
60909;DHT22;46780;48.128;-1.704;2023-02-18T06:33:55;11.70;99.90
60909;DHT22;46780;48.128;-1.704;2023-02-18T06:36:22;11.70;99.90
60909;DHT22;46780;48.128;-1.704;2023-02-18T06:38:48;11.70;99.90
60909;DHT22;46780;48.128;-1.704;2023-02-18T06:41:14;11.70;99.90
60909;DHT22;46780;48.128;-1.704;2023-02-18T06:43:40;11.70;99.90
60909;DHT22;46780;48.128;-1.704;2023-02-18T06:46:06;11.60;99.90
60909;DHT22;46780;48.128;-1.704;2023-02-18T06:48:34;11.60;99.90
60909;DHT22;46780;48.128;-1.704;2023-02-18T06:51:00;11.60;99.90
60909;DHT22;46780;48.128;-1.704;2023-02-18T06:53:26;11.60;99.90
60909;DHT22;46780;48.128;-1.704;2023-02-18T06:55:53;11.60;99.90
60909;DHT22;46780;48.128;-1.704;2023-02-18T06:58:19;11.70;99.90
60909;DHT22;46780;48.128;-1.704;2023-02-18T07:00:45;11.70;99.90
60909;DHT22;46780;48.128;-1.704;2023-02-18T07:03:11;11.70;99.90
60909;DHT22;46780;48.128;-1.704;2023-02-18T07:05:39;11.60;99.90
60909;DHT22;46780;48.128;-1.704;2023-02-18T07:08:05;11.60;99.90
60909;DHT22;46780;48.128;-1.704;2023-02-18T07:10:31;11.60;99.90
60909;DHT22;46780;48.128;-1.704;2023-02-18T07:12:58;11.60;99.90
60909;DHT22;46780;48.128;-1.704;2023-02-18T07:15:24;11.50;99.90
60909;DHT22;46780;48.128;-1.704;2023-02-18T07:17:50;11.60;99.90
60909;DHT22;46780;48.128;-1.704;2023-02-18T07:20:17;11.50;99.90
60909;DHT22;46780;48.128;-1.704;2023-02-18T07:22:44;11.50;99.90
60909;DHT22;46780;48.128;-1.704;2023-02-18T07:25:10;11.50;99.90
60909;DHT22;46780;48.128;-1.704;2023-02-18T07:27:37;11.50;99.90
60909;DHT22;46780;48.128;-1.704;2023-02-18T07:30:03;11.50;99.90
60909;DHT22;46780;48.128;-1.704;2023-02-18T07:32:29;11.50;99.90
60909;DHT22;46780;48.128;-1.704;2023-02-18T07:34:55;11.50;99.90
60909;DHT22;46780;48.128;-1.704;2023-02-18T07:37:22;11.50;99.90
60909;DHT22;46780;48.128;-1.704;2023-02-18T07:39:49;11.50;99.90
60909;DHT22;46780;48.128;-1.704;2023-02-18T07:42:15;11.50;99.90
60909;DHT22;46780;48.128;-1.704;2023-02-18T07:44:42;11.50;99.60
60909;DHT22;46780;48.128;-1.704;2023-02-18T07:47:09;11.50;99.70
60909;DHT22;46780;48.128;-1.704;2023-02-18T07:49:35;11.50;99.70
60909;DHT22;46780;48.128;-1.704;2023-02-18T07:52:01;11.50;99.60
60909;DHT22;46780;48.128;-1.704;2023-02-18T07:54:27;11.60;99.30
60909;DHT22;46780;48.128;-1.704;2023-02-18T07:56:55;11.60;99.30
60909;DHT22;46780;48.128;-1.704;2023-02-18T07:59:21;11.60;99.30
60909;DHT22;46780;48.128;-1.704;2023-02-18T08:01:47;11.60;99.60
60909;DHT22;46780;48.128;-1.704;2023-02-18T08:04:13;11.60;99.90
60909;DHT22;46780;48.128;-1.704;2023-02-18T08:06:40;11.60;99.90
60909;DHT22;46780;48.128;-1.704;2023-02-18T08:09:07;11.60;99.90
60909;DHT22;46780;48.128;-1.704;2023-02-18T08:11:33;11.50;99.90
60909;DHT22;46780;48.128;-1.704;2023-02-18T08:14:01;11.60;99.90
60909;DHT22;46780;48.128;-1.704;2023-02-18T08:16:27;11.60;99.30
60909;DHT22;46780;48.128;-1.704;2023-02-18T08:18:54;11.60;99.20
60909;DHT22;46780;48.128;-1.704;2023-02-18T08:21:20;11.60;98.90
60909;DHT22;46780;48.128;-1.704;2023-02-18T08:23:47;11.70;98.80
60909;DHT22;46780;48.128;-1.704;2023-02-18T08:26:13;11.70;98.80
60909;DHT22;46780;48.128;-1.704;2023-02-18T08:28:39;11.80;98.60
60909;DHT22;46780;48.128;-1.704;2023-02-18T08:31:12;11.80;99.00
60909;DHT22;46780;48.128;-1.704;2023-02-18T08:33:40;11.90;98.20
60909;DHT22;46780;48.128;-1.704;2023-02-18T08:36:06;11.90;98.30
60909;DHT22;46780;48.128;-1.704;2023-02-18T08:38:32;12.00;98.20
60909;DHT22;46780;48.128;-1.704;2023-02-18T08:41:02;12.00;98.10
60909;DHT22;46780;48.128;-1.704;2023-02-18T08:43:29;12.10;97.90
60909;DHT22;46780;48.128;-1.704;2023-02-18T08:45:56;12.10;97.80
60909;DHT22;46780;48.128;-1.704;2023-02-18T08:48:23;12.10;97.60
60909;DHT22;46780;48.128;-1.704;2023-02-18T08:50:50;12.10;97.80
60909;DHT22;46780;48.128;-1.704;2023-02-18T08:53:16;12.10;97.90
60909;DHT22;46780;48.128;-1.704;2023-02-18T08:55:43;12.10;98.10
60909;DHT22;46780;48.128;-1.704;2023-02-18T08:58:09;12.10;97.90
60909;DHT22;46780;48.128;-1.704;2023-02-18T09:00:36;12.20;97.80
60909;DHT22;46780;48.128;-1.704;2023-02-18T09:03:02;12.10;97.50
60909;DHT22;46780;48.128;-1.704;2023-02-18T09:05:30;12.20;97.60
60909;DHT22;46780;48.128;-1.704;2023-02-18T09:07:56;12.20;97.40
60909;DHT22;46780;48.128;-1.704;2023-02-18T09:10:22;12.20;97.10
60909;DHT22;46780;48.128;-1.704;2023-02-18T09:12:50;12.20;97.00
60909;DHT22;46780;48.128;-1.704;2023-02-18T09:15:16;12.10;97.20
60909;DHT22;46780;48.128;-1.704;2023-02-18T09:17:42;12.20;97.00
60909;DHT22;46780;48.128;-1.704;2023-02-18T09:20:09;12.20;97.10
60909;DHT22;46780;48.128;-1.704;2023-02-18T09:22:36;12.10;97.10
60909;DHT22;46780;48.128;-1.704;2023-02-18T09:25:03;12.20;97.50
60909;DHT22;46780;48.128;-1.704;2023-02-18T09:27:30;12.20;97.80
60909;DHT22;46780;48.128;-1.704;2023-02-18T09:29:56;12.20;98.00
60909;DHT22;46780;48.128;-1.704;2023-02-18T09:32:22;12.30;98.00
60909;DHT22;46780;48.128;-1.704;2023-02-18T09:34:48;12.30;97.70
60909;DHT22;46780;48.128;-1.704;2023-02-18T09:37:15;12.40;97.50
60909;DHT22;46780;48.128;-1.704;2023-02-18T09:39:42;12.40;96.90
60909;DHT22;46780;48.128;-1.704;2023-02-18T09:42:10;12.40;96.60
60909;DHT22;46780;48.128;-1.704;2023-02-18T09:44:39;12.40;96.40
60909;DHT22;46780;48.128;-1.704;2023-02-18T09:47:09;12.40;96.40
60909;DHT22;46780;48.128;-1.704;2023-02-18T09:49:37;12.40;96.60
60909;DHT22;46780;48.128;-1.704;2023-02-18T09:52:06;12.30;96.60
60909;DHT22;46780;48.128;-1.704;2023-02-18T09:54:35;12.40;96.50
60909;DHT22;46780;48.128;-1.704;2023-02-18T09:57:03;12.40;96.80
60909;DHT22;46780;48.128;-1.704;2023-02-18T09:59:30;12.40;96.50
60909;DHT22;46780;48.128;-1.704;2023-02-18T10:01:56;12.50;96.60
60909;DHT22;46780;48.128;-1.704;2023-02-18T10:04:24;12.60;96.30
60909;DHT22;46780;48.128;-1.704;2023-02-18T10:06:52;12.50;95.80
60909;DHT22;46780;48.128;-1.704;2023-02-18T10:09:19;12.50;95.50
60909;DHT22;46780;48.128;-1.704;2023-02-18T10:11:47;12.50;95.40
60909;DHT22;46780;48.128;-1.704;2023-02-18T10:14:14;12.40;95.50
60909;DHT22;46780;48.128;-1.704;2023-02-18T10:16:41;12.40;95.70
60909;DHT22;46780;48.128;-1.704;2023-02-18T10:19:11;12.40;96.10
60909;DHT22;46780;48.128;-1.704;2023-02-18T10:21:42;12.40;96.40
60909;DHT22;46780;48.128;-1.704;2023-02-18T10:24:12;12.40;96.50
60909;DHT22;46780;48.128;-1.704;2023-02-18T10:26:42;12.40;96.10
60909;DHT22;46780;48.128;-1.704;2023-02-18T10:29:08;12.40;95.70
60909;DHT22;46780;48.128;-1.704;2023-02-18T10:31:41;12.50;96.00
60909;DHT22;46780;48.128;-1.704;2023-02-18T10:34:11;12.50;96.40
60909;DHT22;46780;48.128;-1.704;2023-02-18T10:36:40;12.50;96.30
60909;DHT22;46780;48.128;-1.704;2023-02-18T10:39:13;12.50;96.50
60909;DHT22;46780;48.128;-1.704;2023-02-18T10:41:44;12.50;96.30
60909;DHT22;46780;48.128;-1.704;2023-02-18T10:44:15;12.50;96.30
60909;DHT22;46780;48.128;-1.704;2023-02-18T10:46:47;12.50;96.00
60909;DHT22;46780;48.128;-1.704;2023-02-18T10:49:22;12.40;95.90
60909;DHT22;46780;48.128;-1.704;2023-02-18T10:51:51;12.40;96.10
60909;DHT22;46780;48.128;-1.704;2023-02-18T10:54:22;12.40;96.80
60909;DHT22;46780;48.128;-1.704;2023-02-18T10:56:49;12.40;96.40
60909;DHT22;46780;48.128;-1.704;2023-02-18T10:59:18;12.40;96.40
60909;DHT22;46780;48.128;-1.704;2023-02-18T11:01:45;12.50;96.40
60909;DHT22;46780;48.128;-1.704;2023-02-18T11:04:19;12.50;96.20
60909;DHT22;46780;48.128;-1.704;2023-02-18T11:06:46;12.50;95.40
60909;DHT22;46780;48.128;-1.704;2023-02-18T11:09:24;12.50;95.00
60909;DHT22;46780;48.128;-1.704;2023-02-18T11:11:51;12.50;95.10
60909;DHT22;46780;48.128;-1.704;2023-02-18T11:14:34;12.60;95.50
60909;DHT22;46780;48.128;-1.704;2023-02-18T11:17:06;12.70;95.50
60909;DHT22;46780;48.128;-1.704;2023-02-18T11:19:36;12.70;95.40
60909;DHT22;46780;48.128;-1.704;2023-02-18T11:22:06;12.80;95.30
60909;DHT22;46780;48.128;-1.704;2023-02-18T11:24:33;13.00;94.40
60909;DHT22;46780;48.128;-1.704;2023-02-18T11:27:04;13.00;90.70
60909;DHT22;46780;48.128;-1.704;2023-02-18T11:29:33;13.00;90.40
60909;DHT22;46780;48.128;-1.704;2023-02-18T11:31:59;13.10;90.80
60909;DHT22;46780;48.128;-1.704;2023-02-18T11:34:26;13.20;89.50
60909;DHT22;46780;48.128;-1.704;2023-02-18T11:36:54;13.20;88.40
60909;DHT22;46780;48.128;-1.704;2023-02-18T11:39:32;13.20;89.00
60909;DHT22;46780;48.128;-1.704;2023-02-18T11:42:00;13.20;90.00
60909;DHT22;46780;48.128;-1.704;2023-02-18T11:44:27;13.30;90.50
60909;DHT22;46780;48.128;-1.704;2023-02-18T11:46:55;13.40;90.10
60909;DHT22;46780;48.128;-1.704;2023-02-18T11:49:22;13.40;89.20
60909;DHT22;46780;48.128;-1.704;2023-02-18T11:51:49;13.40;89.50
60909;DHT22;46780;48.128;-1.704;2023-02-18T11:54:24;13.40;88.40
60909;DHT22;46780;48.128;-1.704;2023-02-18T11:56:53;13.30;87.70
60909;DHT22;46780;48.128;-1.704;2023-02-18T11:59:20;13.30;87.40
60909;DHT22;46780;48.128;-1.704;2023-02-18T12:01:49;13.20;87.70
60909;DHT22;46780;48.128;-1.704;2023-02-18T12:04:16;13.20;87.80
60909;DHT22;46780;48.128;-1.704;2023-02-18T12:06:45;13.10;88.00
60909;DHT22;46780;48.128;-1.704;2023-02-18T12:09:17;13.10;88.70
60909;DHT22;46780;48.128;-1.704;2023-02-18T12:11:47;13.10;88.60
60909;DHT22;46780;48.128;-1.704;2023-02-18T12:14:15;13.10;88.80
60909;DHT22;46780;48.128;-1.704;2023-02-18T12:16:44;13.10;89.60
60909;DHT22;46780;48.128;-1.704;2023-02-18T12:19:24;13.20;89.00
60909;DHT22;46780;48.128;-1.704;2023-02-18T12:21:55;13.10;88.60
60909;DHT22;46780;48.128;-1.704;2023-02-18T12:24:36;13.10;88.40
60909;DHT22;46780;48.128;-1.704;2023-02-18T12:27:09;13.10;89.30
60909;DHT22;46780;48.128;-1.704;2023-02-18T12:29:43;13.10;89.70
60909;DHT22;46780;48.128;-1.704;2023-02-18T12:32:12;13.10;89.70
60909;DHT22;46780;48.128;-1.704;2023-02-18T12:34:53;13.10;90.00
60909;DHT22;46780;48.128;-1.704;2023-02-18T12:37:29;13.10;90.00
60909;DHT22;46780;48.128;-1.704;2023-02-18T12:40:01;13.10;90.10
60909;DHT22;46780;48.128;-1.704;2023-02-18T12:42:33;13.10;90.00
60909;DHT22;46780;48.128;-1.704;2023-02-18T12:45:05;13.10;89.60
60909;DHT22;46780;48.128;-1.704;2023-02-18T12:47:41;13.10;90.00
60909;DHT22;46780;48.128;-1.704;2023-02-18T12:50:22;13.10;90.10
60909;DHT22;46780;48.128;-1.704;2023-02-18T12:52:51;13.10;90.00
60909;DHT22;46780;48.128;-1.704;2023-02-18T12:55:32;13.10;90.30
60909;DHT22;46780;48.128;-1.704;2023-02-18T12:58:07;13.10;90.30
60909;DHT22;46780;48.128;-1.704;2023-02-18T13:00:54;13.10;90.40
60909;DHT22;46780;48.128;-1.704;2023-02-18T13:03:26;13.10;90.40
60909;DHT22;46780;48.128;-1.704;2023-02-18T13:05:56;13.10;90.60
60909;DHT22;46780;48.128;-1.704;2023-02-18T13:08:30;13.10;90.10
60909;DHT22;46780;48.128;-1.704;2023-02-18T13:11:03;13.20;89.80
60909;DHT22;46780;48.128;-1.704;2023-02-18T13:13:36;13.20;89.70
60909;DHT22;46780;48.128;-1.704;2023-02-18T13:16:05;13.20;89.20
60909;DHT22;46780;48.128;-1.704;2023-02-18T13:18:34;13.20;88.00
60909;DHT22;46780;48.128;-1.704;2023-02-18T13:21:02;13.20;87.80
60909;DHT22;46780;48.128;-1.704;2023-02-18T13:23:29;13.20;87.20
60909;DHT22;46780;48.128;-1.704;2023-02-18T13:25:57;13.20;87.80
60909;DHT22;46780;48.128;-1.704;2023-02-18T13:28:25;13.20;87.90
60909;DHT22;46780;48.128;-1.704;2023-02-18T13:30:58;13.20;87.70
60909;DHT22;46780;48.128;-1.704;2023-02-18T13:33:27;13.20;87.60
60909;DHT22;46780;48.128;-1.704;2023-02-18T13:35:59;13.20;87.30
60909;DHT22;46780;48.128;-1.704;2023-02-18T13:38:35;13.20;87.10
60909;DHT22;46780;48.128;-1.704;2023-02-18T13:41:11;13.20;87.20
60909;DHT22;46780;48.128;-1.704;2023-02-18T13:43:37;13.20;86.70
60909;DHT22;46780;48.128;-1.704;2023-02-18T13:46:07;13.20;86.20
60909;DHT22;46780;48.128;-1.704;2023-02-18T13:48:34;13.30;86.60
60909;DHT22;46780;48.128;-1.704;2023-02-18T13:51:02;13.20;87.00
60909;DHT22;46780;48.128;-1.704;2023-02-18T13:53:29;13.30;87.00
60909;DHT22;46780;48.128;-1.704;2023-02-18T13:55:57;13.20;86.30
60909;DHT22;46780;48.128;-1.704;2023-02-18T13:58:28;13.30;86.90
60909;DHT22;46780;48.128;-1.704;2023-02-18T14:00:55;13.30;87.20
60909;DHT22;46780;48.128;-1.704;2023-02-18T14:03:35;13.30;87.20
60909;DHT22;46780;48.128;-1.704;2023-02-18T14:06:05;13.30;87.40
60909;DHT22;46780;48.128;-1.704;2023-02-18T14:08:38;13.30;86.90
60909;DHT22;46780;48.128;-1.704;2023-02-18T14:14:12;13.30;87.90
60909;DHT22;46780;48.128;-1.704;2023-02-18T14:19:27;13.30;87.90
60909;DHT22;46780;48.128;-1.704;2023-02-18T14:21:59;13.30;88.30
60909;DHT22;46780;48.128;-1.704;2023-02-18T14:24:46;13.30;88.10
60909;DHT22;46780;48.128;-1.704;2023-02-18T14:27:14;13.20;88.70
60909;DHT22;46780;48.128;-1.704;2023-02-18T14:29:40;13.10;89.20
60909;DHT22;46780;48.128;-1.704;2023-02-18T14:32:08;13.10;89.20
60909;DHT22;46780;48.128;-1.704;2023-02-18T14:37:24;13.20;89.80
60909;DHT22;46780;48.128;-1.704;2023-02-18T14:39:54;13.20;89.50
60909;DHT22;46780;48.128;-1.704;2023-02-18T14:42:27;13.10;89.60
60909;DHT22;46780;48.128;-1.704;2023-02-18T14:44:59;13.10;89.80
60909;DHT22;46780;48.128;-1.704;2023-02-18T14:47:33;13.10;89.80
60909;DHT22;46780;48.128;-1.704;2023-02-18T14:50:00;13.20;89.80
60909;DHT22;46780;48.128;-1.704;2023-02-18T14:52:30;13.20;89.70
60909;DHT22;46780;48.128;-1.704;2023-02-18T14:54:59;13.20;90.30
60909;DHT22;46780;48.128;-1.704;2023-02-18T14:57:27;13.20;89.70
60909;DHT22;46780;48.128;-1.704;2023-02-18T14:59:56;13.20;89.50
60909;DHT22;46780;48.128;-1.704;2023-02-18T15:02:23;13.20;89.40
60909;DHT22;46780;48.128;-1.704;2023-02-18T15:04:50;13.20;89.50
60909;DHT22;46780;48.128;-1.704;2023-02-18T15:07:17;13.20;89.50
60909;DHT22;46780;48.128;-1.704;2023-02-18T15:09:45;13.30;89.10
60909;DHT22;46780;48.128;-1.704;2023-02-18T15:12:13;13.30;88.90
60909;DHT22;46780;48.128;-1.704;2023-02-18T15:14:41;13.20;89.20
60909;DHT22;46780;48.128;-1.704;2023-02-18T15:17:11;13.20;89.60
60909;DHT22;46780;48.128;-1.704;2023-02-18T15:19:39;13.30;89.70
60909;DHT22;46780;48.128;-1.704;2023-02-18T15:22:06;13.20;89.70
60909;DHT22;46780;48.128;-1.704;2023-02-18T15:24:39;13.20;89.90
60909;DHT22;46780;48.128;-1.704;2023-02-18T15:27:10;13.20;90.00
60909;DHT22;46780;48.128;-1.704;2023-02-18T15:29:37;13.20;90.30
60909;DHT22;46780;48.128;-1.704;2023-02-18T15:32:11;13.20;90.50
60909;DHT22;46780;48.128;-1.704;2023-02-18T15:34:39;13.20;90.50
60909;DHT22;46780;48.128;-1.704;2023-02-18T15:37:06;13.20;90.50
60909;DHT22;46780;48.128;-1.704;2023-02-18T15:39:32;13.20;90.70